This is the latest recevied weather packets stored in our database for station/object DG3GAI-6. If no packets are shown the sender has not sent any weather packets the latest 10 day(s).
| Time | Temp. | Humidity | Pressure | Rain* | Wind** | Luminosity | Snow |
|---|---|---|---|---|---|---|---|
| 1777540502 | 10° C | 42% | 1026 hPa | - | - | - | - |
| 1777538695 | 9.44° C | 42% | 1026 hPa | - | - | - | - |
| 1777536888 | 8.89° C | 43% | 1026 hPa | - | - | - | - |
| 1777535080 | 8.33° C | 44% | 1026 hPa | - | - | - | - |
| 1777533273 | 8.33° C | 45% | 1026 hPa | - | - | - | - |
| 1777531466 | 8.33° C | 44% | 1026 hPa | - | - | - | - |
| 1777529658 | 7.78° C | 46% | 1026 hPa | - | - | - | - |
| 1777527851 | 6.67° C | 50% | 1026 hPa | - | - | - | - |
| 1777526044 | 6.11° C | 50% | 1025 hPa | - | - | - | - |
| 1777524237 | 6.11° C | 49% | 1025 hPa | - | - | - | - |
| 1777522430 | 6.67° C | 47% | 1025 hPa | - | - | - | - |
| 1777520622 | 6.67° C | 47% | 1025 hPa | - | - | - | - |
| 1777518815 | 7.22° C | 45% | 1025 hPa | - | - | - | - |
| 1777517008 | 7.78° C | 45% | 1025 hPa | - | - | - | - |
| 1777515200 | 8.33° C | 44% | 1025 hPa | - | - | - | - |
| 1777513393 | 9.44° C | 42% | 1025 hPa | - | - | - | - |
| 1777511586 | 9.44° C | 40% | 1025 hPa | - | - | - | - |
| 1777509779 | 10° C | 42% | 1025 hPa | - | - | - | - |
| 1777507971 | 9.44° C | 43% | 1025 hPa | - | - | - | - |
| 1777506164 | 10° C | 43% | 1025 hPa | - | - | - | - |
| 1777504357 | 10.56° C | 42% | 1025 hPa | - | - | - | - |
| 1777502550 | 10.56° C | 43% | 1025 hPa | - | - | - | - |
| 1777500742 | 11.11° C | 42% | 1025 hPa | - | - | - | - |
| 1777498935 | 11.67° C | 42% | 1025 hPa | - | - | - | - |
| 1777497128 | 11.67° C | 44% | 1025 hPa | - | - | - | - |
* Rain since midnight (hover to see other rain measurements)
** Current wind speed in m/s (hover to see current wind gust speed)